Time;durP1;ratioP1;P1;durP2;ratioP2;P2;SDS_P1;SDS_P2;PMS_P1;PMS_P2;Temp;Humidity;BMP_temperature;BMP_pressure;BME280_temperature;BME280_humidity;BME280_pressure;Samples;Min_cycle;Max_cycle;Signal;HPM_P1;HPM_P2
2024/01/13 00:02:57;;;;;;;21.40;14.82;;;4.80;99.90;;;;;;6285335;28;20094;-80
2024/01/13 00:05:59;;;;;;;20.48;14.07;;;4.80;99.80;;;;;;6282149;28;20059;-78
2024/01/13 00:09:01;;;;;;;21.60;14.52;;;4.80;99.90;;;;;;6317134;28;20061;-79
2024/01/13 00:12:02;;;;;;;22.90;14.80;;;4.80;98.80;;;;;;6294123;28;20064;-79
2024/01/13 00:15:04;;;;;;;22.58;15.18;;;4.80;99.10;;;;;;6308525;28;20048;-79
2024/01/13 00:18:06;;;;;;;23.77;15.73;;;4.80;99.90;;;;;;6318486;28;20048;-80
2024/01/13 00:21:11;;;;;;;22.17;14.77;;;4.80;99.90;;;;;;6276097;28;20575;-79
2024/01/13 00:24:12;;;;;;;23.45;15.55;;;4.80;99.00;;;;;;6297336;28;20056;-79
2024/01/13 00:27:14;;;;;;;25.00;16.10;;;4.80;99.20;;;;;;6292742;28;20625;-80
2024/01/13 00:30:16;;;;;;;22.85;15.68;;;4.80;99.30;;;;;;6269782;28;20148;-79
2024/01/13 00:33:18;;;;;;;25.20;16.20;;;4.70;99.90;;;;;;6310888;28;20051;-80
2024/01/13 00:36:20;;;;;;;26.58;15.88;;;4.80;99.90;;;;;;6293927;28;20052;-80
2024/01/13 00:39:21;;;;;;;27.58;16.48;;;4.80;99.90;;;;;;6303814;28;20127;-79
2024/01/13 00:42:23;;;;;;;26.67;17.25;;;4.80;99.90;;;;;;6275013;28;20056;-79
2024/01/13 00:45:25;;;;;;;24.45;16.50;;;4.80;99.90;;;;;;6298016;28;20055;-79
2024/01/13 00:48:26;;;;;;;27.73;17.60;;;4.80;99.90;;;;;;6293772;28;20491;-79
2024/01/13 00:51:41;;;;;;;28.13;18.02;;;4.80;99.90;;;;;;6280398;28;20059;-79
2024/01/13 00:54:44;;;;;;;27.67;17.58;;;4.80;99.90;;;;;;6292734;28;20059;-79
2024/01/13 00:57:46;;;;;;;27.27;17.70;;;4.80;99.90;;;;;;6314118;28;20048;-79
2024/01/13 01:00:47;;;;;;;31.83;18.30;;;4.80;99.90;;;;;;6291652;28;20051;-79
2024/01/13 01:03:49;;;;;;;30.67;18.00;;;4.80;99.80;;;;;;6291985;28;20071;-79
2024/01/13 01:06:51;;;;;;;27.25;17.63;;;4.80;99.90;;;;;;6290883;28;20060;-80
2024/01/13 01:09:53;;;;;;;33.97;19.02;;;4.80;99.90;;;;;;6314059;28;20067;-79
2024/01/13 01:12:54;;;;;;;26.55;17.60;;;4.80;99.90;;;;;;6295137;28;20158;-80
2024/01/13 01:15:56;;;;;;;24.67;16.42;;;4.80;99.90;;;;;;6314355;28;20672;-79
2024/01/13 01:18:57;;;;;;;24.77;16.10;;;4.80;99.90;;;;;;6272973;28;20436;-79
2024/01/13 01:21:59;;;;;;;25.75;16.42;;;4.70;99.90;;;;;;6306224;28;20494;-80
2024/01/13 01:25:01;;;;;;;24.80;15.55;;;4.70;99.90;;;;;;6320973;28;20507;-80
2024/01/13 01:28:02;;;;;;;24.42;15.15;;;4.60;99.70;;;;;;6278921;28;20162;-80
2024/01/13 01:31:04;;;;;;;23.77;16.10;;;4.60;99.20;;;;;;6281788;28;20080;-79
2024/01/13 01:34:06;;;;;;;24.45;15.27;;;4.60;99.90;;;;;;6273056;28;20053;-80
2024/01/13 01:37:08;;;;;;;23.65;15.20;;;4.60;99.80;;;;;;6270619;28;20135;-80
2024/01/13 01:40:10;;;;;;;21.75;14.73;;;4.60;99.90;;;;;;6294555;28;20048;-79
2024/01/13 01:43:11;;;;;;;23.60;15.90;;;4.60;99.90;;;;;;6312096;28;20044;-80
2024/01/13 01:46:13;;;;;;;21.30;14.98;;;4.60;99.90;;;;;;6311378;28;20248;-79
2024/01/13 01:49:16;;;;;;;24.70;15.95;;;4.60;99.90;;;;;;6297897;28;20040;-80
2024/01/13 01:52:17;;;;;;;23.35;15.93;;;4.60;99.90;;;;;;6279305;28;20079;-80
2024/01/13 01:55:19;;;;;;;25.05;16.52;;;4.60;99.90;;;;;;6296048;28;20676;-80
2024/01/13 01:58:24;;;;;;;23.98;15.88;;;4.60;99.90;;;;;;6297741;28;20178;-79
2024/01/13 02:01:35;;;;;;;24.75;15.18;;;4.50;99.90;;;;;;6294889;28;20052;-79
2024/01/13 02:04:37;;;;;;;24.52;16.45;;;4.40;99.90;;;;;;6316580;28;20469;-79
2024/01/13 02:07:39;;;;;;;23.38;15.85;;;4.40;99.90;;;;;;6293395;28;20059;-79
2024/01/13 02:10:41;;;;;;;22.55;15.13;;;4.40;99.90;;;;;;6282577;28;20637;-80
2024/01/13 02:13:43;;;;;;;21.17;15.10;;;4.40;99.90;;;;;;6309771;28;20149;-80
2024/01/13 02:16:44;;;;;;;21.50;14.77;;;4.40;99.90;;;;;;6278646;28;20508;-79
2024/01/13 02:19:46;;;;;;;23.35;14.48;;;4.40;99.90;;;;;;6295755;28;20060;-80
2024/01/13 02:22:47;;;;;;;21.15;14.63;;;4.30;99.90;;;;;;6295302;28;20052;-79
2024/01/13 02:25:49;;;;;;;21.13;13.40;;;4.30;99.90;;;;;;6295554;28;20056;-79
2024/01/13 02:28:51;;;;;;;21.05;14.25;;;4.30;99.90;;;;;;6293931;28;20048;-80
2024/01/13 02:31:52;;;;;;;24.25;14.85;;;4.30;99.90;;;;;;6277064;28;20673;-79
2024/01/13 02:34:54;;;;;;;22.05;14.45;;;4.30;99.90;;;;;;6295565;28;20534;-79
2024/01/13 02:37:56;;;;;;;23.33;15.25;;;4.30;99.90;;;;;;6301548;28;20127;-80
2024/01/13 02:40:57;;;;;;;21.17;14.35;;;4.30;99.90;;;;;;6296474;28;20064;-80
2024/01/13 02:43:59;;;;;;;21.77;14.55;;;4.20;99.90;;;;;;6307942;28;20049;-80
2024/01/13 02:47:00;;;;;;;22.88;14.68;;;4.20;99.90;;;;;;6320104;28;20070;-79
2024/01/13 02:50:02;;;;;;;22.00;13.43;;;4.20;99.90;;;;;;6295771;28;20044;-80
2024/01/13 02:53:04;;;;;;;21.33;14.13;;;4.20;99.90;;;;;;6299347;28;20149;-79
2024/01/13 02:56:05;;;;;;;22.10;14.20;;;4.10;99.90;;;;;;6308048;28;20060;-80
2024/01/13 02:59:07;;;;;;;21.88;14.52;;;4.10;99.90;;;;;;6295434;28;20526;-80
2024/01/13 03:02:09;;;;;;;19.55;13.82;;;4.10;99.90;;;;;;6297532;28;20060;-79
2024/01/13 03:05:10;;;;;;;16.92;12.20;;;4.10;99.90;;;;;;6276539;28;20040;-80
2024/01/13 03:08:12;;;;;;;18.23;12.88;;;4.10;99.90;;;;;;6299736;28;20056;-79
2024/01/13 03:11:27;;;;;;;21.27;12.30;;;4.10;99.90;;;;;;6270350;28;20106;-80
2024/01/13 03:14:30;;;;;;;17.33;12.35;;;4.00;99.90;;;;;;6302485;28;20090;-80
2024/01/13 03:17:31;;;;;;;16.83;12.50;;;4.00;99.90;;;;;;6319747;28;20052;-79
2024/01/13 03:20:33;;;;;;;20.10;12.23;;;4.00;99.90;;;;;;6312997;28;20056;-79
2024/01/13 03:23:36;;;;;;;20.52;13.00;;;4.00;99.90;;;;;;6296155;28;20412;-80
2024/01/13 03:26:38;;;;;;;19.63;12.50;;;4.00;99.90;;;;;;6296324;28;20518;-80
2024/01/13 03:29:39;;;;;;;19.10;12.63;;;4.00;99.90;;;;;;6273348;28;20053;-78
2024/01/13 03:32:41;;;;;;;17.13;12.13;;;3.90;99.90;;;;;;6294281;28;20087;-80
2024/01/13 03:35:43;;;;;;;19.40;12.38;;;3.90;99.90;;;;;;6318976;28;20056;-81
2024/01/13 03:38:44;;;;;;;17.45;11.50;;;3.90;99.90;;;;;;6288263;28;20048;-79
2024/01/13 03:41:46;;;;;;;18.70;12.82;;;3.90;99.90;;;;;;6276079;28;20061;-78
2024/01/13 03:44:48;;;;;;;16.13;11.23;;;3.90;99.90;;;;;;6287682;28;20727;-80
2024/01/13 03:47:50;;;;;;;16.88;11.50;;;3.90;99.90;;;;;;6297135;28;20048;-80
2024/01/13 03:50:51;;;;;;;17.40;11.77;;;3.80;99.90;;;;;;6294362;28;20488;-80
2024/01/13 03:53:53;;;;;;;18.02;11.15;;;3.90;99.90;;;;;;6300631;28;20725;-79
2024/01/13 03:56:55;;;;;;;15.35;10.55;;;3.80;99.90;;;;;;6294337;28;20518;-80
2024/01/13 03:59:56;;;;;;;15.18;10.88;;;3.80;99.90;;;;;;6272712;28;20155;-78
2024/01/13 04:02:58;;;;;;;17.60;11.30;;;3.80;99.90;;;;;;6302429;28;20055;-78
2024/01/13 04:06:00;;;;;;;16.92;11.43;;;3.70;99.90;;;;;;6296348;28;20056;-78
2024/01/13 04:09:02;;;;;;;17.88;11.45;;;3.70;99.90;;;;;;6275651;28;20052;-79
2024/01/13 04:12:04;;;;;;;17.60;12.65;;;3.70;99.90;;;;;;6318327;28;20059;-79
2024/01/13 04:15:06;;;;;;;19.02;12.70;;;3.70;99.90;;;;;;6292432;28;20139;-79
2024/01/13 04:18:07;;;;;;;17.40;12.07;;;3.80;99.90;;;;;;6301612;28;20048;-78
2024/01/13 04:21:09;;;;;;;17.73;11.50;;;3.70;99.90;;;;;;6308638;28;20056;-78
2024/01/13 04:24:23;;;;;;;17.83;11.73;;;3.70;99.90;;;;;;6269128;28;20053;-79
2024/01/13 04:27:25;;;;;;;18.08;12.77;;;3.70;99.90;;;;;;6273097;28;20051;-79
2024/01/13 04:30:27;;;;;;;17.75;11.68;;;3.70;99.90;;;;;;6297630;28;20537;-79
2024/01/13 04:33:29;;;;;;;19.40;12.43;;;3.70;99.90;;;;;;6293885;28;20106;-79
2024/01/13 04:36:31;;;;;;;18.38;12.13;;;3.70;99.90;;;;;;6306688;28;20068;-79
2024/01/13 04:39:32;;;;;;;19.50;12.50;;;3.70;99.90;;;;;;6278494;28;20419;-81
2024/01/13 04:42:34;;;;;;;16.98;11.30;;;3.70;99.90;;;;;;6316365;28;20117;-79
2024/01/13 04:45:36;;;;;;;24.75;11.07;;;3.60;99.90;;;;;;6299510;28;20415;-79
2024/01/13 04:48:39;;;;;;;15.60;10.68;;;3.50;99.90;;;;;;6317483;28;20052;-78
2024/01/13 04:51:42;;;;;;;18.30;10.77;;;3.50;99.90;;;;;;6293084;28;20055;-79
2024/01/13 04:54:43;;;;;;;17.23;11.38;;;3.50;99.90;;;;;;6297904;28;20546;-79
2024/01/13 04:57:45;;;;;;;16.52;11.23;;;3.50;99.90;;;;;;6298971;28;20063;-79
2024/01/13 05:00:46;;;;;;;18.50;11.48;;;3.50;99.90;;;;;;6292521;28;20052;-79
2024/01/13 05:03:48;;;;;;;18.65;11.57;;;3.50;99.90;;;;;;6299246;28;20427;-79
2024/01/13 05:06:50;;;;;;;20.90;13.38;;;3.50;99.90;;;;;;6275029;28;20131;-79
2024/01/13 05:09:52;;;;;;;18.08;11.82;;;3.50;99.90;;;;;;6317210;28;20048;-79
2024/01/13 05:12:53;;;;;;;19.13;12.45;;;3.60;99.90;;;;;;6293064;28;20533;-79
2024/01/13 05:15:55;;;;;;;18.08;11.60;;;3.60;99.90;;;;;;6292814;28;20055;-80
2024/01/13 05:18:57;;;;;;;19.42;12.10;;;3.60;99.90;;;;;;6282216;28;20048;-80
2024/01/13 05:21:58;;;;;;;19.92;12.02;;;3.60;99.90;;;;;;6311317;28;20492;-81
2024/01/13 05:25:00;;;;;;;21.05;12.68;;;3.50;99.90;;;;;;6285298;28;20048;-79
2024/01/13 05:28:02;;;;;;;20.77;11.68;;;3.50;99.90;;;;;;6315983;28;20056;-81
2024/01/13 05:31:03;;;;;;;19.65;11.55;;;3.40;99.90;;;;;;6290765;28;20056;-79
2024/01/13 05:34:05;;;;;;;21.92;11.98;;;3.30;99.90;;;;;;6285519;28;20668;-79
2024/01/13 05:37:07;;;;;;;22.17;12.70;;;3.40;99.90;;;;;;6292992;28;20423;-79
2024/01/13 05:40:09;;;;;;;22.35;13.23;;;3.40;99.90;;;;;;6294448;28;20404;-79
2024/01/13 05:43:10;;;;;;;21.95;12.88;;;3.40;99.90;;;;;;6283014;28;20133;-79
2024/01/13 05:46:12;;;;;;;22.10;12.80;;;3.30;99.90;;;;;;6291853;28;20053;-79
2024/01/13 05:49:14;;;;;;;21.65;12.65;;;3.30;99.90;;;;;;6294642;28;20081;-79
2024/01/13 05:52:16;;;;;;;19.45;11.93;;;3.20;99.90;;;;;;6291878;28;20049;-78
2024/01/13 05:55:17;;;;;;;22.52;12.93;;;3.20;99.90;;;;;;6292869;28;20055;-79
2024/01/13 05:58:19;;;;;;;23.27;12.07;;;3.20;99.90;;;;;;6294237;28;20044;-78
2024/01/13 06:01:21;;;;;;;23.55;12.95;;;3.20;99.90;;;;;;6287202;28;20048;-79
2024/01/13 06:04:22;;;;;;;20.98;12.60;;;3.20;99.90;;;;;;6290834;28;20110;-79
2024/01/13 06:07:24;;;;;;;23.08;13.52;;;3.20;99.90;;;;;;6298729;28;20531;-79
2024/01/13 06:10:37;;;;;;;25.13;13.32;;;3.30;99.90;;;;;;6277281;28;20052;-79
2024/01/13 06:13:38;;;;;;;26.23;14.48;;;3.30;99.90;;;;;;6281112;28;20075;-79
2024/01/13 06:16:40;;;;;;;25.42;13.80;;;3.40;99.90;;;;;;6297586;28;20055;-79
2024/01/13 06:19:42;;;;;;;26.73;15.52;;;3.40;99.90;;;;;;6278561;28;20068;-80
2024/01/13 06:22:44;;;;;;;25.02;14.77;;;3.40;99.90;;;;;;6297974;28;20167;-79
2024/01/13 06:25:46;;;;;;;24.67;14.75;;;3.30;99.90;;;;;;6308229;28;20056;-79
2024/01/13 06:28:47;;;;;;;24.67;14.65;;;3.30;99.90;;;;;;6280158;28;20048;-80
2024/01/13 06:31:49;;;;;;;24.10;13.88;;;3.30;99.90;;;;;;6310260;28;20058;-79
2024/01/13 06:34:51;;;;;;;23.25;14.02;;;3.30;99.90;;;;;;6296437;28;20064;-79
2024/01/13 06:37:52;;;;;;;24.65;14.73;;;3.30;99.90;;;;;;6296034;28;20514;-80
2024/01/13 06:40:54;;;;;;;25.25;14.55;;;3.20;99.90;;;;;;6307164;28;20059;-79
2024/01/13 06:43:55;;;;;;;24.65;14.50;;;3.20;99.90;;;;;;6315568;28;20529;-80
2024/01/13 06:46:57;;;;;;;27.70;15.20;;;3.20;99.90;;;;;;6278266;28;20060;-79
2024/01/13 06:49:58;;;;;;;26.42;14.43;;;3.10;99.90;;;;;;6303212;28;20044;-80
2024/01/13 06:53:01;;;;;;;27.17;14.82;;;3.10;99.90;;;;;;6300751;28;20098;-80
2024/01/13 06:56:03;;;;;;;25.10;14.30;;;3.10;99.90;;;;;;6298720;28;20052;-79
2024/01/13 06:59:05;;;;;;;26.40;14.77;;;3.00;99.90;;;;;;6304094;28;20105;-78
2024/01/13 07:02:06;;;;;;;25.67;15.32;;;2.90;99.90;;;;;;6319702;28;20070;-79
2024/01/13 07:05:08;;;;;;;24.40;13.85;;;2.90;99.90;;;;;;6296123;28;20159;-78
2024/01/13 07:08:09;;;;;;;23.92;13.68;;;2.80;99.90;;;;;;6300402;28;20052;-78
2024/01/13 07:11:11;;;;;;;27.13;15.40;;;2.80;99.90;;;;;;6319734;28;20044;-78
2024/01/13 07:14:13;;;;;;;29.25;15.02;;;2.80;99.90;;;;;;6304733;28;20063;-79
2024/01/13 07:17:15;;;;;;;25.30;14.80;;;2.80;99.90;;;;;;6295543;28;20059;-78
2024/01/13 07:20:16;;;;;;;28.02;15.00;;;2.80;99.90;;;;;;6300834;28;20052;-79
2024/01/13 07:23:18;;;;;;;29.25;15.77;;;2.80;99.90;;;;;;6318968;28;20055;-79
2024/01/13 07:26:20;;;;;;;28.17;15.07;;;2.80;99.90;;;;;;6290506;28;20518;-79
2024/01/13 07:29:21;;;;;;;29.10;15.48;;;2.80;99.90;;;;;;6292717;28;20064;-78
2024/01/13 07:32:23;;;;;;;27.08;14.52;;;2.70;99.90;;;;;;6318922;28;20052;-79
2024/01/13 07:35:25;;;;;;;28.42;15.02;;;2.70;99.90;;;;;;6294802;28;20121;-78
2024/01/13 07:38:26;;;;;;;28.55;15.13;;;2.70;99.90;;;;;;6316818;28;20048;-79
2024/01/13 07:41:28;;;;;;;29.05;15.40;;;2.60;99.90;;;;;;6300894;28;20063;-78
2024/01/13 07:44:30;;;;;;;30.40;15.73;;;2.60;99.90;;;;;;6305217;28;20080;-79
2024/01/13 07:47:31;;;;;;;31.30;16.58;;;2.60;99.90;;;;;;6319469;28;20091;-78
2024/01/13 07:50:33;;;;;;;31.75;16.42;;;2.60;99.90;;;;;;6293870;28;20068;-79
2024/01/13 07:53:35;;;;;;;31.55;15.95;;;2.50;99.90;;;;;;6296008;28;20059;-79
2024/01/13 07:56:37;;;;;;;33.72;16.60;;;2.50;99.90;;;;;;6318128;28;20140;-78
2024/01/13 07:59:38;;;;;;;36.30;16.92;;;2.50;99.90;;;;;;6302587;28;20056;-79
2024/01/13 08:02:40;;;;;;;38.38;17.30;;;2.50;99.90;;;;;;6275667;28;20048;-79
2024/01/13 08:05:42;;;;;;;37.03;17.60;;;2.50;99.90;;;;;;6294404;28;20045;-79
2024/01/13 08:08:43;;;;;;;34.58;16.83;;;2.60;99.90;;;;;;6301692;28;20056;-79
2024/01/13 08:11:45;;;;;;;34.70;17.73;;;2.50;99.90;;;;;;6292270;28;20165;-79
2024/01/13 08:14:49;;;;;;;36.97;18.27;;;2.50;99.90;;;;;;6295317;28;20449;-79
2024/01/13 08:17:51;;;;;;;39.10;18.63;;;2.50;99.90;;;;;;6275067;28;20520;-80
2024/01/13 08:20:53;;;;;;;37.90;18.35;;;2.50;99.90;;;;;;6296877;28;20079;-79
2024/01/13 08:23:54;;;;;;;38.92;18.52;;;2.50;99.90;;;;;;6275208;28;20222;-80
2024/01/13 08:26:56;;;;;;;36.83;18.38;;;2.50;99.90;;;;;;6295058;28;20066;-80
2024/01/13 08:29:58;;;;;;;39.70;19.40;;;2.50;99.90;;;;;;6295092;28;20562;-82
2024/01/13 08:33:00;;;;;;;38.67;19.00;;;2.50;99.90;;;;;;6293207;28;20064;-81
2024/01/13 08:36:01;;;;;;;39.67;19.48;;;2.50;99.90;;;;;;6274184;28;20056;-79
2024/01/13 08:39:03;;;;;;;39.30;19.80;;;2.50;99.90;;;;;;6296737;28;20051;-79
2024/01/13 08:42:05;;;;;;;37.95;19.13;;;2.50;99.90;;;;;;6297237;28;20052;-80
2024/01/13 08:45:07;;;;;;;37.92;19.13;;;2.50;99.90;;;;;;6268480;28;20137;-79
2024/01/13 08:48:08;;;;;;;40.05;19.65;;;2.50;99.90;;;;;;6274766;28;20048;-82
2024/01/13 08:51:10;;;;;;;42.30;20.60;;;2.60;99.90;;;;;;6312127;28;20056;-81
2024/01/13 08:54:26;;;;;;;46.90;22.15;;;2.60;99.90;;;;;;6267850;28;20125;-81
2024/01/13 08:57:28;;;;;;;43.58;21.27;;;2.60;99.90;;;;;;6264804;28;20501;-80
2024/01/13 09:00:30;;;;;;;50.70;22.88;;;2.60;99.90;;;;;;6315496;28;20086;-81
2024/01/13 09:03:31;;;;;;;44.85;21.33;;;2.60;99.90;;;;;;6274916;28;20048;-80
2024/01/13 09:06:33;;;;;;;45.28;21.33;;;2.60;99.90;;;;;;6317756;28;20056;-83
2024/01/13 09:09:35;;;;;;;46.97;21.85;;;2.70;99.90;;;;;;6293008;28;20416;-82
2024/01/13 09:12:37;;;;;;;46.15;21.95;;;2.70;99.90;;;;;;6291995;28;20500;-80
2024/01/13 09:15:39;;;;;;;47.10;20.98;;;2.70;99.90;;;;;;6290218;28;20055;-80
2024/01/13 09:18:40;;;;;;;46.10;20.02;;;2.70;99.90;;;;;;6290252;28;20048;-80
2024/01/13 09:21:42;;;;;;;44.55;20.38;;;2.70;99.90;;;;;;6287532;28;20490;-80
2024/01/13 09:24:47;;;;;;;45.83;19.77;;;2.70;99.90;;;;;;6288024;28;20058;-80
2024/01/13 09:27:49;;;;;;;43.35;18.55;;;2.60;99.90;;;;;;6293673;28;20070;-83
2024/01/13 09:30:51;;;;;;;43.40;19.25;;;2.70;99.90;;;;;;6287299;28;20126;-80
2024/01/13 09:33:52;;;;;;;42.05;18.35;;;2.60;99.90;;;;;;6291383;28;20051;-80
2024/01/13 09:36:55;;;;;;;42.45;17.25;;;2.70;99.90;;;;;;6292882;28;20051;-80
2024/01/13 09:39:57;;;;;;;42.95;17.83;;;2.60;99.90;;;;;;6279110;28;20514;-79
2024/01/13 09:42:58;;;;;;;36.60;17.17;;;2.60;99.90;;;;;;6278032;28;20052;-79
2024/01/13 09:46:00;;;;;;;36.00;16.08;;;2.70;99.90;;;;;;6296998;28;20048;-81
2024/01/13 09:49:02;;;;;;;42.35;17.25;;;2.60;99.80;;;;;;6277871;28;20055;-80
2024/01/13 09:52:05;;;;;;;38.97;17.95;;;2.60;99.20;;;;;;6303726;28;20048;-79
2024/01/13 09:55:08;;;;;;;37.05;15.52;;;2.60;99.60;;;;;;6299553;28;20162;-83
2024/01/13 09:58:09;;;;;;;38.90;17.05;;;2.70;99.50;;;;;;6302498;28;20048;-81
2024/01/13 10:01:11;;;;;;;41.45;17.67;;;2.70;99.60;;;;;;6296281;28;20049;-82
2024/01/13 10:04:29;;;;;;;42.40;18.05;;;2.80;98.80;;;;;;6280042;28;20177;-82
2024/01/13 10:07:31;;;;;;;40.45;17.25;;;2.80;99.00;;;;;;6296179;28;20419;-81
2024/01/13 10:10:32;;;;;;;40.58;17.08;;;2.80;99.80;;;;;;6294816;28;20059;-80
2024/01/13 10:13:34;;;;;;;44.75;18.08;;;2.80;99.90;;;;;;6305786;28;20056;-79
2024/01/13 10:16:35;;;;;;;46.25;19.15;;;2.80;99.90;;;;;;6299456;28;20075;-80
2024/01/13 10:19:37;;;;;;;43.72;18.85;;;2.90;99.90;;;;;;6277154;28;20048;-81
2024/01/13 10:22:40;;;;;;;40.53;17.95;;;3.00;99.90;;;;;;6294778;28;20514;-79
2024/01/13 10:25:41;;;;;;;41.22;18.17;;;3.00;99.00;;;;;;6276631;28;20662;-80
2024/01/13 10:28:43;;;;;;;39.80;18.70;;;2.90;99.90;;;;;;6298757;28;20079;-81
2024/01/13 10:31:44;;;;;;;41.05;18.40;;;2.90;99.70;;;;;;6294634;28;20075;-80
2024/01/13 10:34:47;;;;;;;42.47;18.80;;;3.00;99.90;;;;;;6297909;28;20109;-81
2024/01/13 10:37:49;;;;;;;42.60;18.42;;;3.00;99.90;;;;;;6294246;28;20053;-81
2024/01/13 10:40:51;;;;;;;38.17;17.92;;;3.00;99.80;;;;;;6295842;28;20059;-82
2024/01/13 10:43:53;;;;;;;43.33;18.80;;;3.10;99.40;;;;;;6279984;28;20139;-82
2024/01/13 10:46:54;;;;;;;43.47;19.15;;;3.10;99.00;;;;;;6290117;28;20131;-82
2024/01/13 10:49:57;;;;;;;43.38;18.17;;;3.10;99.90;;;;;;6298524;28;20052;-83
2024/01/13 10:52:59;;;;;;;39.20;18.40;;;3.20;99.20;;;;;;6278235;28;20160;-84
2024/01/13 10:56:01;;;;;;;38.38;17.88;;;3.20;96.70;;;;;;6297205;28;20045;-85
2024/01/13 10:59:02;;;;;;;39.80;18.02;;;3.30;97.90;;;;;;6294410;28;20048;-83
2024/01/13 11:02:04;;;;;;;38.20;17.77;;;3.40;97.40;;;;;;6298580;28;20056;-86
2024/01/13 11:05:05;;;;;;;40.85;17.75;;;3.50;96.80;;;;;;6298056;28;20094;-84
2024/01/13 11:08:07;;;;;;;43.25;19.92;;;3.60;94.20;;;;;;6299907;28;20491;-84
2024/01/13 11:11:11;;;;;;;38.65;18.08;;;3.60;94.70;;;;;;6301701;28;20048;-85
2024/01/13 11:14:23;;;;;;;37.15;17.48;;;3.60;95.50;;;;;;6293165;28;20044;-81
2024/01/13 11:17:25;;;;;;;36.83;17.33;;;3.60;94.50;;;;;;6294946;28;20075;-79
2024/01/13 11:20:27;;;;;;;38.35;17.98;;;3.60;94.20;;;;;;6292550;28;20055;-80
2024/01/13 11:23:28;;;;;;;36.55;17.63;;;3.70;94.00;;;;;;6291561;28;20511;-80
2024/01/13 11:26:30;;;;;;;40.50;19.45;;;3.70;94.50;;;;;;6299572;28;20056;-80
2024/01/13 11:29:32;;;;;;;39.88;17.70;;;3.70;95.90;;;;;;6293891;28;20887;-81
2024/01/13 11:32:33;;;;;;;36.65;17.25;;;3.80;93.90;;;;;;6292178;28;20520;-81
2024/01/13 11:35:35;;;;;;;36.28;16.85;;;3.90;95.50;;;;;;6294332;28;20101;-79
2024/01/13 11:38:37;;;;;;;39.60;17.42;;;3.90;93.50;;;;;;6297675;28;20057;-80
2024/01/13 11:41:39;;;;;;;38.22;17.45;;;4.00;95.60;;;;;;6293335;28;20048;-80
2024/01/13 11:44:41;;;;;;;36.80;16.73;;;4.00;93.80;;;;;;6297824;28;20067;-79
2024/01/13 11:47:42;;;;;;;35.47;16.73;;;4.00;91.90;;;;;;6290727;28;20484;-79
2024/01/13 11:50:44;;;;;;;34.60;16.77;;;4.00;92.60;;;;;;6275631;28;20055;-80
2024/01/13 11:53:46;;;;;;;37.03;17.15;;;4.10;93.70;;;;;;6294829;28;20059;-81
2024/01/13 11:56:48;;;;;;;33.05;15.27;;;4.10;93.10;;;;;;6296732;28;20080;-80
2024/01/13 11:59:50;;;;;;;31.38;15.05;;;4.10;91.70;;;;;;6298207;28;20852;-79
2024/01/13 12:02:53;;;;;;;33.10;16.13;;;4.20;92.60;;;;;;6295154;28;20051;-83
2024/01/13 12:05:54;;;;;;;34.10;16.17;;;4.20;92.30;;;;;;6293955;28;20059;-82
2024/01/13 12:08:56;;;;;;;36.03;17.13;;;4.30;93.00;;;;;;6276470;28;20048;-83
2024/01/13 12:11:58;;;;;;;33.63;16.90;;;4.50;92.70;;;;;;6296150;28;20119;-81
2024/01/13 12:14:59;;;;;;;33.67;15.48;;;4.50;91.90;;;;;;6295205;28;20060;-79
2024/01/13 12:18:02;;;;;;;31.73;16.02;;;4.50;90.10;;;;;;6293476;28;20052;-81
2024/01/13 12:21:04;;;;;;;36.95;17.85;;;4.50;88.00;;;;;;6294836;28;20091;-80
2024/01/13 12:24:08;;;;;;;35.60;17.02;;;4.40;90.80;;;;;;6292674;28;20048;-80
2024/01/13 12:27:10;;;;;;;37.40;17.75;;;4.40;91.30;;;;;;6273608;28;20049;-81
2024/01/13 12:30:12;;;;;;;34.67;16.65;;;4.30;87.90;;;;;;6288894;28;20665;-80
2024/01/13 12:33:13;;;;;;;35.33;17.55;;;4.30;92.20;;;;;;6295122;28;20127;-82
2024/01/13 12:36:15;;;;;;;37.20;18.33;;;4.20;90.80;;;;;;6296365;28;20098;-82
2024/01/13 12:39:17;;;;;;;37.67;18.33;;;4.20;92.60;;;;;;6290662;28;20066;-84
2024/01/13 12:42:19;;;;;;;37.55;18.33;;;4.20;91.90;;;;;;6274880;28;20056;-82
2024/01/13 12:45:20;;;;;;;40.28;18.02;;;4.20;91.40;;;;;;6284567;28;20060;-83
2024/01/13 12:48:22;;;;;;;37.85;18.00;;;4.30;91.70;;;;;;6296086;28;20044;-82
2024/01/13 12:51:28;;;;;;;35.42;17.73;;;4.40;90.50;;;;;;6290582;28;20067;-82
2024/01/13 12:54:30;;;;;;;36.97;17.17;;;4.40;89.70;;;;;;6303928;28;20415;-80
2024/01/13 12:57:32;;;;;;;36.63;17.38;;;4.30;90.70;;;;;;6277068;28;20055;-83
2024/01/13 13:00:34;;;;;;;37.55;17.50;;;4.40;90.80;;;;;;6286187;28;20111;-88
2024/01/13 13:03:36;;;;;;;34.97;17.48;;;4.50;91.90;;;;;;6299831;28;20060;-85
2024/01/13 13:06:38;;;;;;;38.72;17.58;;;4.60;88.80;;;;;;6311316;28;20028;-82
2024/01/13 13:09:40;;;;;;;37.78;17.90;;;4.50;90.60;;;;;;6286812;28;20502;-81
2024/01/13 13:12:42;;;;;;;38.58;17.90;;;4.60;91.70;;;;;;6299023;28;20547;-85
2024/01/13 13:15:44;;;;;;;37.05;17.23;;;4.60;88.80;;;;;;6312490;28;20055;-80
2024/01/13 13:18:47;;;;;;;32.90;16.95;;;4.70;89.20;;;;;;6287521;28;20380;-82
2024/01/13 13:21:50;;;;;;;36.80;17.17;;;4.60;90.80;;;;;;6278489;28;20515;-82
2024/01/13 13:24:52;;;;;;;36.85;17.35;;;4.60;89.50;;;;;;6280064;28;20079;-82
2024/01/13 13:28:13;;;;;;;33.10;16.70;;;4.60;90.20;;;;;;6278318;28;20614;-80
2024/01/13 13:31:15;;;;;;;33.70;16.83;;;4.70;90.30;;;;;;6296989;28;20139;-81
2024/01/13 13:34:17;;;;;;;35.40;16.42;;;4.60;90.00;;;;;;6295201;28;20091;-81
2024/01/13 13:37:19;;;;;;;34.03;16.05;;;4.60;90.50;;;;;;6299522;28;20135;-80
2024/01/13 13:40:21;;;;;;;35.35;15.80;;;4.50;90.60;;;;;;6297509;28;20067;-83
2024/01/13 13:43:23;;;;;;;31.65;15.45;;;4.60;92.70;;;;;;6281228;28;20048;-81
2024/01/13 13:46:25;;;;;;;29.95;15.43;;;4.70;91.20;;;;;;6278860;28;20186;-80
2024/01/13 13:49:28;;;;;;;33.15;14.93;;;4.60;92.00;;;;;;6295888;28;20045;-82
2024/01/13 13:52:30;;;;;;;28.88;14.43;;;4.60;90.40;;;;;;6297905;28;20041;-82
2024/01/13 13:55:33;;;;;;;34.28;15.30;;;4.70;91.80;;;;;;6281819;28;20059;-84
2024/01/13 13:58:35;;;;;;;29.73;14.60;;;4.80;92.80;;;;;;6300903;28;20060;-84
2024/01/13 14:01:37;;;;;;;31.58;14.38;;;4.80;90.00;;;;;;6278660;28;20080;-83
2024/01/13 14:04:38;;;;;;;29.90;13.55;;;4.80;90.10;;;;;;6277886;28;20079;-84
2024/01/13 14:07:40;;;;;;;30.05;14.60;;;5.00;91.60;;;;;;6277767;28;20419;-83
2024/01/13 14:10:42;;;;;;;28.10;14.20;;;5.00;90.60;;;;;;6296978;28;20049;-83
2024/01/13 14:13:45;;;;;;;31.20;15.80;;;5.00;90.30;;;;;;6297091;28;20432;-83
2024/01/13 14:16:47;;;;;;;29.83;15.18;;;5.00;87.10;;;;;;6296398;28;20056;-82
2024/01/13 14:19:49;;;;;;;28.58;14.68;;;5.00;90.30;;;;;;6296743;28;20105;-84
2024/01/13 14:22:50;;;;;;;27.10;13.10;;;4.80;88.60;;;;;;6278563;28;20553;-83
2024/01/13 14:25:52;;;;;;;27.05;14.30;;;4.80;84.90;;;;;;6294578;28;20523;-81
2024/01/13 14:28:55;;;;;;;28.88;13.80;;;4.80;91.50;;;;;;6296837;28;20041;-82
2024/01/13 14:31:56;;;;;;;29.98;15.52;;;4.80;90.50;;;;;;6298025;28;20052;-83
2024/01/13 14:34:59;;;;;;;33.30;15.15;;;4.70;90.50;;;;;;6295326;28;20059;-82
2024/01/13 14:38:18;;;;;;;28.55;15.55;;;4.80;91.60;;;;;;6294811;28;20515;-82
2024/01/13 14:41:19;;;;;;;29.00;14.52;;;4.80;88.40;;;;;;6295387;28;20048;-83
2024/01/13 14:44:21;;;;;;;31.52;14.68;;;4.70;91.30;;;;;;6295861;28;20136;-82
2024/01/13 14:47:22;;;;;;;26.95;13.23;;;4.70;90.80;;;;;;6295522;28;20503;-82
2024/01/13 14:50:24;;;;;;;28.98;14.38;;;4.60;92.60;;;;;;6298277;28;20454;-82
2024/01/13 14:53:28;;;;;;;30.00;14.88;;;4.70;93.10;;;;;;6294900;28;20049;-83
2024/01/13 14:56:30;;;;;;;28.50;14.10;;;4.80;93.20;;;;;;6296266;28;20088;-81
2024/01/13 14:59:31;;;;;;;37.72;13.20;;;4.70;90.70;;;;;;6292534;28;20051;-84
2024/01/13 15:02:34;;;;;;;30.38;13.88;;;4.70;94.60;;;;;;6280731;28;20428;-87
2024/01/13 15:05:39;;;;;;;27.70;13.55;;;4.80;93.20;;;;;;6300034;28;20044;-84
2024/01/13 15:08:40;;;;;;;29.40;13.15;;;4.90;91.70;;;;;;6300162;28;20055;-85
2024/01/13 15:11:42;;;;;;;27.83;13.65;;;4.80;91.40;;;;;;6296510;28;20416;-82
2024/01/13 15:14:44;;;;;;;26.73;13.25;;;4.70;92.70;;;;;;6281144;28;20044;-82
2024/01/13 15:17:46;;;;;;;26.25;13.23;;;4.60;93.80;;;;;;6276395;28;20135;-83
2024/01/13 15:20:50;;;;;;;27.20;13.15;;;4.60;93.60;;;;;;6294237;28;20075;-82
2024/01/13 15:23:51;;;;;;;25.40;12.88;;;4.60;93.10;;;;;;6294181;28;20052;-82
2024/01/13 15:26:53;;;;;;;27.48;13.32;;;4.50;93.60;;;;;;6295729;28;20064;-82
2024/01/13 15:29:57;;;;;;;24.33;12.32;;;4.50;94.00;;;;;;6297434;28;20052;-82
2024/01/13 15:32:58;;;;;;;24.67;12.35;;;4.50;94.30;;;;;;6293753;28;20060;-81
2024/01/13 15:36:02;;;;;;;26.85;11.90;;;4.60;95.20;;;;;;6275856;28;20048;-83